Time;durP1;ratioP1;P1;durP2;ratioP2;P2;SDS_P1;SDS_P2;PMS_P1;PMS_P2;Temp;Humidity;BMP_temperature;BMP_pressure;BME280_temperature;BME280_humidity;BME280_pressure;Samples;Min_cycle;Max_cycle;Signal;HPM_P1;HPM_P2
2022/07/13 00:00:14;;;;;;;0.77;0.50;;;;;;;;;;5075600;28;20367;-81
2022/07/13 00:02:40;;;;;;;0.65;0.50;;;;;;;;;;5075395;28;20410;-81
2022/07/13 00:05:06;;;;;;;0.82;0.60;;;;;;;;;;5075490;28;20384;-81
2022/07/13 00:07:33;;;;;;;0.50;0.50;;;;;;;;;;5075390;28;20719;-81
2022/07/13 00:09:59;;;;;;;0.73;0.52;;;;;;;;;;5075454;28;20375;-81
2022/07/13 00:12:25;;;;;;;0.88;0.70;;;;;;;;;;5075266;28;20405;-81
2022/07/13 00:14:51;;;;;;;1.38;0.50;;;;;;;;;;5075201;28;20387;-81
2022/07/13 00:17:17;;;;;;;0.50;0.40;;;;;;;;;;5075352;28;20380;-81
2022/07/13 00:19:43;;;;;;;0.95;0.50;;;;;;;;;;5075030;28;20387;-81
2022/07/13 00:22:09;;;;;;;0.88;0.57;;;;;;;;;;5075008;28;20386;-81
2022/07/13 00:24:35;;;;;;;1.20;0.53;;;;;;;;;;5074942;28;20376;-81
2022/07/13 00:27:01;;;;;;;0.43;0.40;;;;;;;;;;5074050;28;20396;-81
2022/07/13 00:29:27;;;;;;;0.90;0.40;;;;;;;;;;5075167;28;20427;-81
2022/07/13 00:31:53;;;;;;;0.63;0.50;;;;;;;;;;5074745;28;20539;-81
2022/07/13 00:34:19;;;;;;;0.38;0.38;;;;;;;;;;5074751;28;20737;-81
2022/07/13 00:36:45;;;;;;;0.50;0.50;;;;;;;;;;5074800;28;20380;-81
2022/07/13 00:39:11;;;;;;;0.50;0.30;;;;;;;;;;5080732;28;20754;-81
2022/07/13 00:41:44;;;;;;;0.40;0.40;;;;;;;;;;5095059;28;20374;-81
2022/07/13 00:44:11;;;;;;;0.40;0.40;;;;;;;;;;5094801;28;20858;-81
2022/07/13 00:46:37;;;;;;;0.90;0.45;;;;;;;;;;5094928;28;20374;-81
2022/07/13 00:49:04;;;;;;;0.60;0.50;;;;;;;;;;5094753;28;20424;-81
2022/07/13 00:51:31;;;;;;;0.80;0.30;;;;;;;;;;5094783;28;20409;-81
2022/07/13 00:53:57;;;;;;;0.80;0.50;;;;;;;;;;5093333;28;20930;-81
2022/07/13 00:56:23;;;;;;;0.93;0.50;;;;;;;;;;5094191;28;20458;-81
2022/07/13 00:58:50;;;;;;;0.43;0.43;;;;;;;;;;5093781;28;20477;-81
2022/07/13 01:01:16;;;;;;;0.70;0.50;;;;;;;;;;5094614;28;20427;-81
2022/07/13 01:03:42;;;;;;;0.73;0.52;;;;;;;;;;5094587;28;20384;-81
2022/07/13 01:06:08;;;;;;;0.70;0.50;;;;;;;;;;5094495;28;20413;-81
2022/07/13 01:08:35;;;;;;;0.47;0.40;;;;;;;;;;5094581;28;20378;-81
2022/07/13 01:11:01;;;;;;;0.55;0.47;;;;;;;;;;5094476;28;20381;-81
2022/07/13 01:13:28;;;;;;;1.58;0.70;;;;;;;;;;5086494;28;20414;-81
2022/07/13 01:15:54;;;;;;;1.35;0.63;;;;;;;;;;5093340;28;20383;-81
2022/07/13 01:18:21;;;;;;;1.02;0.70;;;;;;;;;;5094235;28;20375;-81
2022/07/13 01:20:47;;;;;;;0.70;0.63;;;;;;;;;;5073064;28;20395;-81
2022/07/13 01:23:14;;;;;;;1.00;0.63;;;;;;;;;;5072936;28;20383;-81
2022/07/13 01:25:41;;;;;;;0.73;0.50;;;;;;;;;;5073700;28;20387;-81
2022/07/13 01:28:07;;;;;;;0.60;0.60;;;;;;;;;;5073919;28;20789;-81
2022/07/13 01:30:33;;;;;;;1.05;0.47;;;;;;;;;;5073947;28;20384;-81
2022/07/13 01:32:59;;;;;;;1.52;0.70;;;;;;;;;;5073666;28;20414;-81
2022/07/13 01:35:26;;;;;;;0.70;0.60;;;;;;;;;;5073469;28;20387;-81
2022/07/13 01:37:53;;;;;;;1.70;0.60;;;;;;;;;;5066048;28;20737;-81
2022/07/13 01:40:19;;;;;;;1.60;0.60;;;;;;;;;;5087761;28;20381;-81
2022/07/13 01:42:47;;;;;;;1.50;0.60;;;;;;;;;;5080240;28;20472;-81
2022/07/13 01:45:13;;;;;;;0.80;0.55;;;;;;;;;;5093717;28;20412;-81
2022/07/13 01:47:47;;;;;;;0.40;0.40;;;;;;;;;;5092679;28;20386;-81
2022/07/13 01:50:13;;;;;;;0.70;0.55;;;;;;;;;;5093774;28;20382;-81
2022/07/13 01:52:39;;;;;;;0.60;0.60;;;;;;;;;;5093501;28;20409;-81
2022/07/13 01:55:06;;;;;;;1.10;0.47;;;;;;;;;;5093549;28;20839;-81
2022/07/13 01:57:32;;;;;;;1.20;0.60;;;;;;;;;;5093499;28;20366;-81
2022/07/13 01:59:59;;;;;;;0.60;0.50;;;;;;;;;;5093559;28;20366;-81
2022/07/13 02:02:25;;;;;;;2.20;0.50;;;;;;;;;;5093406;28;20382;-81
2022/07/13 02:04:51;;;;;;;0.43;0.43;;;;;;;;;;5093422;28;20464;-81
2022/07/13 02:07:17;;;;;;;1.60;0.50;;;;;;;;;;5092640;28;20457;-81
2022/07/13 02:09:43;;;;;;;0.80;0.50;;;;;;;;;;5093158;28;20431;-81
2022/07/13 02:12:09;;;;;;;1.00;0.50;;;;;;;;;;5093376;28;20406;-81
2022/07/13 02:14:35;;;;;;;0.50;0.50;;;;;;;;;;5093082;28;20873;-81
2022/07/13 02:17:01;;;;;;;1.53;0.60;;;;;;;;;;5093223;28;20382;-81
2022/07/13 02:19:27;;;;;;;0.50;0.50;;;;;;;;;;5083699;28;20430;-81
2022/07/13 02:21:53;;;;;;;1.10;0.70;;;;;;;;;;5071892;28;20396;-81
2022/07/13 02:24:19;;;;;;;1.30;0.60;;;;;;;;;;5072746;28;20737;-81
2022/07/13 02:26:45;;;;;;;0.55;0.50;;;;;;;;;;5072313;28;20407;-81
2022/07/13 02:29:11;;;;;;;0.50;0.50;;;;;;;;;;5072730;28;20465;-81
2022/07/13 02:31:37;;;;;;;1.55;0.60;;;;;;;;;;5071268;28;20788;-81
2022/07/13 02:34:03;;;;;;;0.63;0.60;;;;;;;;;;5072389;28;20403;-81
2022/07/13 02:36:29;;;;;;;0.50;0.50;;;;;;;;;;5072325;28;20450;-81
2022/07/13 02:38:55;;;;;;;1.40;0.65;;;;;;;;;;5076386;28;20374;-81
2022/07/13 02:41:21;;;;;;;1.50;0.70;;;;;;;;;;5078979;28;20387;-81
2022/07/13 02:43:48;;;;;;;0.77;0.50;;;;;;;;;;5072086;28;20422;-81
2022/07/13 02:46:14;;;;;;;2.13;0.68;;;;;;;;;;5072497;28;20437;-81
2022/07/13 02:48:40;;;;;;;0.93;0.70;;;;;;;;;;5072495;28;20387;-81
2022/07/13 02:51:06;;;;;;;0.90;0.60;;;;;;;;;;5071411;28;20888;-81
2022/07/13 02:53:32;;;;;;;0.60;0.60;;;;;;;;;;5072291;28;20897;-81
2022/07/13 02:55:58;;;;;;;0.70;0.60;;;;;;;;;;5072414;28;20413;-81
2022/07/13 02:58:25;;;;;;;1.27;0.70;;;;;;;;;;5072455;28;20368;-81
2022/07/13 03:00:51;;;;;;;0.70;0.70;;;;;;;;;;5072329;28;20399;-81
2022/07/13 03:03:17;;;;;;;0.60;0.60;;;;;;;;;;5072759;28;20733;-81
2022/07/13 03:05:43;;;;;;;1.30;0.60;;;;;;;;;;5072137;28;20423;-81
2022/07/13 03:08:09;;;;;;;0.60;0.60;;;;;;;;;;5072244;28;20371;-81
2022/07/13 03:10:35;;;;;;;0.88;0.63;;;;;;;;;;5072229;28;20384;-81
2022/07/13 03:13:01;;;;;;;1.52;0.80;;;;;;;;;;5072130;28;20765;-81
2022/07/13 03:15:27;;;;;;;1.30;0.80;;;;;;;;;;5072155;28;20414;-81
2022/07/13 03:17:53;;;;;;;1.20;0.80;;;;;;;;;;5072381;28;20379;-81
2022/07/13 03:20:19;;;;;;;1.00;0.80;;;;;;;;;;5075494;28;20394;-81
2022/07/13 03:22:47;;;;;;;0.60;0.55;;;;;;;;;;5075728;28;20384;-81
2022/07/13 03:25:14;;;;;;;1.10;0.70;;;;;;;;;;5062206;28;20455;-81
2022/07/13 03:27:40;;;;;;;0.60;0.50;;;;;;;;;;5076199;28;20439;-81
2022/07/13 03:30:06;;;;;;;0.80;0.50;;;;;;;;;;5076081;28;20388;-81
2022/07/13 03:32:32;;;;;;;1.30;0.53;;;;;;;;;;5076290;28;20498;-81
2022/07/13 03:34:58;;;;;;;1.02;0.65;;;;;;;;;;5074926;28;20468;-81
2022/07/13 03:37:24;;;;;;;0.52;0.52;;;;;;;;;;5076060;28;20368;-81
2022/07/13 03:39:50;;;;;;;1.02;0.60;;;;;;;;;;5076017;28;20865;-81
2022/07/13 03:42:16;;;;;;;1.20;0.60;;;;;;;;;;5075928;28;20433;-81
2022/07/13 03:44:42;;;;;;;1.20;0.70;;;;;;;;;;5075926;28;20415;-81
2022/07/13 03:47:08;;;;;;;1.10;0.65;;;;;;;;;;5063051;28;20412;-81
2022/07/13 03:49:34;;;;;;;0.90;0.70;;;;;;;;;;5075830;28;20922;-81
2022/07/13 03:52:00;;;;;;;1.38;0.60;;;;;;;;;;5075932;28;20545;-81
2022/07/13 03:54:26;;;;;;;0.90;0.60;;;;;;;;;;5074539;28;20380;-81
2022/07/13 03:56:52;;;;;;;0.70;0.65;;;;;;;;;;5075717;28;20470;-81
2022/07/13 03:59:18;;;;;;;1.10;0.68;;;;;;;;;;5075606;28;20379;-81
2022/07/13 04:01:44;;;;;;;1.92;0.60;;;;;;;;;;5075453;28;20462;-81
2022/07/13 04:04:10;;;;;;;1.50;0.70;;;;;;;;;;5074342;28;20414;-81
2022/07/13 04:06:36;;;;;;;1.75;0.60;;;;;;;;;;5075625;28;20857;-81
2022/07/13 04:09:02;;;;;;;1.13;0.52;;;;;;;;;;5075462;28;20379;-81
2022/07/13 04:11:28;;;;;;;1.40;0.60;;;;;;;;;;5075317;28;20376;-81
2022/07/13 04:13:54;;;;;;;0.98;0.57;;;;;;;;;;5075174;28;20788;-81
2022/07/13 04:16:20;;;;;;;0.50;0.50;;;;;;;;;;5074524;28;20406;-81
2022/07/13 04:18:46;;;;;;;1.00;0.60;;;;;;;;;;5075094;28;20386;-80
2022/07/13 04:21:13;;;;;;;1.50;0.50;;;;;;;;;;5073441;28;20467;-81
2022/07/13 04:23:40;;;;;;;0.83;0.60;;;;;;;;;;5069884;28;20423;-81
2022/07/13 04:26:06;;;;;;;0.65;0.60;;;;;;;;;;5075447;28;20425;-80
2022/07/13 04:28:32;;;;;;;1.70;0.60;;;;;;;;;;5075033;28;20454;-80
2022/07/13 04:30:58;;;;;;;0.80;0.60;;;;;;;;;;5074045;28;20489;-80
2022/07/13 04:33:24;;;;;;;1.10;0.60;;;;;;;;;;5073479;28;20769;-81
2022/07/13 04:35:50;;;;;;;0.63;0.50;;;;;;;;;;5074395;28;20380;-81
2022/07/13 04:38:16;;;;;;;1.52;0.50;;;;;;;;;;5086595;28;20385;-81
2022/07/13 04:40:42;;;;;;;0.68;0.68;;;;;;;;;;5093383;28;20433;-81
2022/07/13 04:43:09;;;;;;;1.60;0.63;;;;;;;;;;5066463;28;20415;-81
2022/07/13 04:45:35;;;;;;;0.63;0.55;;;;;;;;;;5066968;28;20397;-81
2022/07/13 04:48:01;;;;;;;0.90;0.60;;;;;;;;;;5071640;28;21117;-81
2022/07/13 04:50:27;;;;;;;0.70;0.60;;;;;;;;;;5073370;28;20388;-81
2022/07/13 04:52:53;;;;;;;1.43;0.70;;;;;;;;;;5074574;28;20411;-81
2022/07/13 04:55:19;;;;;;;0.80;0.60;;;;;;;;;;5074456;28;20470;-81
2022/07/13 04:57:45;;;;;;;0.85;0.60;;;;;;;;;;5074041;28;20455;-80
2022/07/13 05:00:11;;;;;;;1.02;0.60;;;;;;;;;;5074609;28;20368;-80
2022/07/13 05:02:38;;;;;;;0.63;0.50;;;;;;;;;;5074382;28;20470;-81
2022/07/13 05:05:04;;;;;;;0.50;0.50;;;;;;;;;;5074425;28;20733;-81
2022/07/13 05:07:30;;;;;;;1.05;0.60;;;;;;;;;;5074335;28;20470;-81
2022/07/13 05:09:57;;;;;;;0.68;0.55;;;;;;;;;;5069927;28;20388;-82
2022/07/13 05:12:23;;;;;;;0.90;0.50;;;;;;;;;;5074209;28;20498;-80
2022/07/13 05:14:50;;;;;;;2.60;0.60;;;;;;;;;;5072816;28;20875;-80
2022/07/13 05:17:19;;;;;;;0.63;0.50;;;;;;;;;;5073017;28;20430;-80
2022/07/13 05:19:45;;;;;;;2.35;0.60;;;;;;;;;;5062822;28;20375;-80
2022/07/13 05:22:11;;;;;;;0.50;0.40;;;;;;;;;;5070570;28;20378;-80
2022/07/13 05:24:37;;;;;;;0.60;0.50;;;;;;;;;;5084268;28;20523;-80
2022/07/13 05:27:03;;;;;;;1.88;0.50;;;;;;;;;;5055828;28;20381;-80
2022/07/13 05:29:29;;;;;;;0.77;0.50;;;;;;;;;;5055876;28;20381;-80
2022/07/13 05:31:55;;;;;;;1.00;0.40;;;;;;;;;;5071094;28;20438;-80
2022/07/13 05:34:21;;;;;;;0.60;0.57;;;;;;;;;;5068347;28;20395;-80
2022/07/13 05:36:47;;;;;;;1.15;0.52;;;;;;;;;;5072476;28;20865;-80
2022/07/13 05:39:13;;;;;;;2.08;0.60;;;;;;;;;;5064583;28;20379;-80
2022/07/13 05:41:39;;;;;;;0.98;0.47;;;;;;;;;;5073586;28;20375;-81
2022/07/13 05:44:05;;;;;;;1.50;0.50;;;;;;;;;;5070751;28;20391;-80
2022/07/13 05:46:31;;;;;;;1.35;0.80;;;;;;;;;;5061153;28;20372;-81
2022/07/13 05:48:57;;;;;;;0.60;0.57;;;;;;;;;;5069058;28;20459;-81
2022/07/13 05:51:23;;;;;;;0.77;0.50;;;;;;;;;;5073523;28;20372;-81
2022/07/13 05:53:50;;;;;;;0.88;0.40;;;;;;;;;;5073287;28;20441;-80
2022/07/13 05:56:16;;;;;;;2.42;0.50;;;;;;;;;;5060777;28;20394;-80
2022/07/13 05:58:42;;;;;;;1.77;0.60;;;;;;;;;;5053605;28;20464;-80
2022/07/13 06:01:08;;;;;;;0.73;0.60;;;;;;;;;;5058034;28;20859;-80
2022/07/13 06:03:34;;;;;;;0.52;0.35;;;;;;;;;;5063087;28;20407;-81
2022/07/13 06:06:00;;;;;;;0.68;0.47;;;;;;;;;;5073212;28;20406;-80
2022/07/13 06:08:26;;;;;;;2.03;0.52;;;;;;;;;;5073169;28;20865;-81
2022/07/13 06:10:52;;;;;;;1.50;0.50;;;;;;;;;;5073100;28;20388;-80
2022/07/13 06:13:18;;;;;;;1.25;0.50;;;;;;;;;;5054283;28;20409;-81
2022/07/13 06:15:44;;;;;;;1.13;0.60;;;;;;;;;;5052979;28;20385;-81
2022/07/13 06:18:10;;;;;;;1.15;0.60;;;;;;;;;;5053027;28;20374;-81
2022/07/13 06:20:36;;;;;;;1.50;0.57;;;;;;;;;;5056340;28;20688;-81
2022/07/13 06:23:09;;;;;;;0.93;0.63;;;;;;;;;;5056466;28;20911;-80
2022/07/13 06:25:35;;;;;;;0.90;0.60;;;;;;;;;;5058770;28;20442;-79
2022/07/13 06:28:01;;;;;;;1.17;0.50;;;;;;;;;;5072252;28;20420;-81
2022/07/13 06:30:27;;;;;;;0.75;0.43;;;;;;;;;;5090310;28;20378;-80
2022/07/13 06:32:53;;;;;;;0.95;0.55;;;;;;;;;;5078832;28;20459;-81
2022/07/13 06:35:19;;;;;;;0.60;0.50;;;;;;;;;;5092110;28;20386;-81
2022/07/13 06:37:45;;;;;;;2.10;0.55;;;;;;;;;;5063562;28;20387;-80
2022/07/13 06:40:12;;;;;;;2.20;0.60;;;;;;;;;;5072731;28;20376;-81
2022/07/13 06:42:38;;;;;;;1.00;0.60;;;;;;;;;;5072634;28;20437;-81
2022/07/13 06:45:04;;;;;;;1.85;0.60;;;;;;;;;;5071074;28;20383;-80
2022/07/13 06:47:30;;;;;;;1.10;0.60;;;;;;;;;;5071525;28;20861;-80
2022/07/13 06:49:56;;;;;;;0.90;0.77;;;;;;;;;;5072631;28;20410;-80
2022/07/13 06:52:22;;;;;;;0.70;0.52;;;;;;;;;;5072432;28;20403;-80
2022/07/13 06:54:48;;;;;;;0.50;0.43;;;;;;;;;;5071889;28;20871;-80
2022/07/13 06:57:14;;;;;;;1.08;0.55;;;;;;;;;;5062547;28;20430;-81
2022/07/13 06:59:41;;;;;;;1.13;0.60;;;;;;;;;;5052154;28;20850;-81
2022/07/13 07:02:07;;;;;;;1.02;0.50;;;;;;;;;;5051215;28;20819;-80
2022/07/13 07:04:33;;;;;;;1.00;0.50;;;;;;;;;;5056131;28;20646;-80
2022/07/13 07:06:59;;;;;;;1.92;0.73;;;;;;;;;;5053635;28;20465;-80
2022/07/13 07:09:25;;;;;;;1.42;0.70;;;;;;;;;;5058928;28;20419;-80
2022/07/13 07:11:51;;;;;;;1.17;0.70;;;;;;;;;;5072146;28;20395;-80
2022/07/13 07:14:17;;;;;;;1.30;0.70;;;;;;;;;;5074352;28;20745;-80
2022/07/13 07:16:43;;;;;;;0.60;0.60;;;;;;;;;;5092393;28;20420;-80
2022/07/13 07:19:09;;;;;;;1.00;0.60;;;;;;;;;;5092656;28;20381;-80
2022/07/13 07:21:36;;;;;;;1.15;0.68;;;;;;;;;;5073638;28;20380;-80
2022/07/13 07:24:03;;;;;;;1.07;0.70;;;;;;;;;;5072236;28;20387;-80
2022/07/13 07:26:30;;;;;;;1.08;0.68;;;;;;;;;;5072186;28;20387;-80
2022/07/13 07:28:56;;;;;;;1.00;0.60;;;;;;;;;;5072066;28;20402;-80
2022/07/13 07:31:22;;;;;;;13.70;1.33;;;;;;;;;;5072265;28;20470;-81
2022/07/13 07:33:48;;;;;;;4.20;0.75;;;;;;;;;;5071864;28;20977;-80
2022/07/13 07:36:16;;;;;;;1.27;0.70;;;;;;;;;;5071785;28;20384;-80
2022/07/13 07:38:42;;;;;;;1.92;0.65;;;;;;;;;;5069364;28;20911;-81
2022/07/13 07:41:10;;;;;;;1.80;0.70;;;;;;;;;;5051533;28;20395;-80
2022/07/13 07:43:36;;;;;;;1.50;0.68;;;;;;;;;;5071114;28;20384;-81
2022/07/13 07:46:02;;;;;;;0.88;0.60;;;;;;;;;;5071987;28;20848;-81
2022/07/13 07:48:28;;;;;;;1.63;0.70;;;;;;;;;;5071911;28;20379;-81
2022/07/13 07:50:54;;;;;;;2.30;0.90;;;;;;;;;;5069038;28;20437;-80
2022/07/13 07:53:20;;;;;;;1.17;0.77;;;;;;;;;;5066974;28;20480;-81
2022/07/13 07:55:46;;;;;;;1.13;0.60;;;;;;;;;;5071808;28;20384;-81
2022/07/13 07:58:13;;;;;;;1.00;0.70;;;;;;;;;;5070818;28;20926;-81
2022/07/13 08:00:40;;;;;;;1.60;0.80;;;;;;;;;;5063343;28;20436;-81
2022/07/13 08:03:06;;;;;;;2.00;0.80;;;;;;;;;;5058223;28;20424;-81
2022/07/13 08:05:32;;;;;;;2.17;0.68;;;;;;;;;;5057650;28;20391;-81
2022/07/13 08:07:58;;;;;;;8.00;1.20;;;;;;;;;;5075604;28;20387;-82
2022/07/13 08:10:24;;;;;;;2.60;0.70;;;;;;;;;;5075395;28;20410;-81
2022/07/13 08:12:51;;;;;;;1.63;0.70;;;;;;;;;;5075336;28;20419;-82
2022/07/13 08:15:17;;;;;;;3.05;0.85;;;;;;;;;;5071050;28;20871;-81
2022/07/13 08:17:43;;;;;;;1.30;0.67;;;;;;;;;;5075215;28;20554;-81
2022/07/13 08:20:11;;;;;;;0.67;0.67;;;;;;;;;;5074276;28;20515;-81
2022/07/13 08:22:38;;;;;;;3.10;0.70;;;;;;;;;;5075430;28;20390;-81
2022/07/13 08:25:04;;;;;;;1.45;0.60;;;;;;;;;;5075118;28;20459;-81
2022/07/13 08:27:30;;;;;;;1.00;0.70;;;;;;;;;;5075161;28;20387;-81
2022/07/13 08:29:56;;;;;;;1.98;0.73;;;;;;;;;;5075106;28;20465;-81
2022/07/13 08:32:22;;;;;;;1.60;0.82;;;;;;;;;;5075248;28;20892;-81
2022/07/13 08:40:21;;;;;;;3.03;0.90;;;;;;;;;;5075137;28;20533;-82
2022/07/13 08:42:47;;;;;;;1.00;0.60;;;;;;;;;;5075126;28;20383;-82
2022/07/13 08:45:13;;;;;;;1.00;0.60;;;;;;;;;;5074702;28;20722;-81
2022/07/13 08:47:40;;;;;;;1.42;0.73;;;;;;;;;;5062243;28;20377;-81
2022/07/13 08:50:07;;;;;;;2.20;0.70;;;;;;;;;;5063128;28;20389;-81
2022/07/13 08:52:37;;;;;;;1.92;0.68;;;;;;;;;;5070112;28;20410;-82
2022/07/13 08:55:04;;;;;;;2.08;0.70;;;;;;;;;;5074614;28;20581;-82
2022/07/13 08:57:31;;;;;;;2.50;0.60;;;;;;;;;;5074611;28;20379;-81
2022/07/13 08:59:57;;;;;;;1.38;0.60;;;;;;;;;;5074684;28;20376;-82
2022/07/13 09:02:23;;;;;;;0.90;0.40;;;;;;;;;;5074543;28;20411;-82
2022/07/13 09:04:49;;;;;;;2.30;0.73;;;;;;;;;;5053826;28;20408;-82
2022/07/13 09:07:15;;;;;;;1.08;0.60;;;;;;;;;;5069147;28;20481;-81
2022/07/13 09:09:41;;;;;;;0.65;0.50;;;;;;;;;;5073769;28;20418;-81
2022/07/13 09:12:16;;;;;;;1.80;0.60;;;;;;;;;;5074230;28;20442;-81
2022/07/13 09:14:44;;;;;;;0.50;0.50;;;;;;;;;;5074458;28;20384;-82
2022/07/13 09:17:19;;;;;;;1.40;0.60;;;;;;;;;;5073637;28;20387;-82
2022/07/13 09:19:45;;;;;;;1.25;0.52;;;;;;;;;;5074261;28;20392;-81
2022/07/13 09:22:12;;;;;;;1.73;0.60;;;;;;;;;;5073422;28;20896;-82
2022/07/13 09:24:45;;;;;;;20.00;1.40;;;;;;;;;;5094246;28;20457;-81
2022/07/13 09:27:12;;;;;;;166.48;8.38;;;;;;;;;;5094234;28;20908;-82
2022/07/13 09:29:38;;;;;;;1.20;0.50;;;;;;;;;;5094594;28;20370;-81
2022/07/13 09:32:08;;;;;;;0.70;0.40;;;;;;;;;;5094130;28;20955;-82
2022/07/13 09:34:45;;;;;;;1.33;0.50;;;;;;;;;;5093848;28;20909;-82
2022/07/13 09:37:12;;;;;;;1.65;0.40;;;;;;;;;;5094116;28;20378;-82
2022/07/13 09:39:57;;;;;;;2.60;0.50;;;;;;;;;;5094005;28;20398;-82
2022/07/13 09:42:27;;;;;;;0.57;0.47;;;;;;;;;;5093892;28;20370;-82
2022/07/13 09:47:47;;;;;;;0.82;0.50;;;;;;;;;;5086448;28;20385;-82
2022/07/13 09:50:15;;;;;;;5.70;0.75;;;;;;;;;;5093755;28;20381;-82
2022/07/13 09:52:43;;;;;;;0.50;0.50;;;;;;;;;;5072228;28;20411;-82
2022/07/13 09:55:11;;;;;;;1.03;0.50;;;;;;;;;;5071605;28;20384;-82
2022/07/13 09:57:44;;;;;;;1.98;0.60;;;;;;;;;;5064790;28;20927;-81
2022/07/13 10:00:11;;;;;;;0.93;0.50;;;;;;;;;;5061337;28;20385;-82
2022/07/13 10:02:38;;;;;;;0.50;0.40;;;;;;;;;;5070648;28;20761;-82
2022/07/13 10:05:05;;;;;;;0.90;0.40;;;;;;;;;;5066824;28;20399;-82
2022/07/13 10:07:31;;;;;;;0.70;0.60;;;;;;;;;;5093566;28;20493;-82
2022/07/13 10:09:57;;;;;;;0.60;0.50;;;;;;;;;;5092275;28;20867;-82
2022/07/13 10:12:23;;;;;;;0.82;0.50;;;;;;;;;;5067337;28;20456;-82
2022/07/13 10:14:50;;;;;;;1.65;0.55;;;;;;;;;;5063157;28;20380;-83
2022/07/13 10:17:17;;;;;;;0.40;0.40;;;;;;;;;;5073203;28;20379;-82
2022/07/13 10:19:44;;;;;;;1.50;0.60;;;;;;;;;;5062183;28;20784;-82
2022/07/13 10:22:11;;;;;;;1.08;0.60;;;;;;;;;;5072929;28;20737;-83
2022/07/13 10:24:37;;;;;;;1.00;0.50;;;;;;;;;;5056429;28;20762;-83
2022/07/13 10:27:25;;;;;;;1.40;0.70;;;;;;;;;;5059588;28;20410;-83
2022/07/13 10:29:53;;;;;;;1.60;0.55;;;;;;;;;;5072743;28;20383;-83
2022/07/13 10:32:26;;;;;;;1.45;0.57;;;;;;;;;;5085648;28;20436;-83
2022/07/13 10:34:52;;;;;;;10.05;1.05;;;;;;;;;;5072515;28;20808;-83
2022/07/13 10:37:18;;;;;;;1.08;0.60;;;;;;;;;;5072683;28;20368;-83
2022/07/13 10:40:17;;;;;;;1.67;0.57;;;;;;;;;;5072565;28;20386;-83
2022/07/13 10:43:00;;;;;;;0.90;0.52;;;;;;;;;;5060543;28;20388;-82
2022/07/13 10:45:38;;;;;;;3.38;0.77;;;;;;;;;;5071201;28;20427;-83
2022/07/13 10:48:22;;;;;;;1.60;0.60;;;;;;;;;;5072385;28;20414;-83
2022/07/13 10:50:52;;;;;;;4.68;1.17;;;;;;;;;;5072642;28;20392;-82
2022/07/13 10:53:19;;;;;;;1.63;0.80;;;;;;;;;;5072319;28;20479;-82
2022/07/13 10:55:51;;;;;;;1.65;0.88;;;;;;;;;;5072341;28;20467;-82
2022/07/13 10:58:33;;;;;;;9.98;1.00;;;;;;;;;;5072284;28;20371;-82
2022/07/13 11:01:00;;;;;;;1.35;0.60;;;;;;;;;;5072205;28;20372;-83
2022/07/13 11:03:38;;;;;;;8.50;1.08;;;;;;;;;;5068178;28;20407;-81
2022/07/13 11:06:05;;;;;;;3.80;1.00;;;;;;;;;;5069073;28;20391;-81
2022/07/13 11:08:31;;;;;;;2.20;0.77;;;;;;;;;;5070976;28;20376;-82
2022/07/13 11:11:14;;;;;;;2.80;0.80;;;;;;;;;;5072263;28;20376;-82
2022/07/13 11:13:41;;;;;;;1.33;0.60;;;;;;;;;;5070678;28;20407;-82
2022/07/13 11:16:08;;;;;;;1.02;0.93;;;;;;;;;;5072400;28;20371;-82
2022/07/13 11:18:43;;;;;;;2.10;1.00;;;;;;;;;;5070419;28;20481;-82
2022/07/13 11:21:14;;;;;;;1.87;0.90;;;;;;;;;;5058611;28;20383;-82
2022/07/13 11:26:46;;;;;;;1.83;1.00;;;;;;;;;;5072277;28;20466;-82
2022/07/13 11:29:18;;;;;;;7.35;0.80;;;;;;;;;;5071984;28;20380;-82
2022/07/13 11:31:45;;;;;;;3.67;0.60;;;;;;;;;;5072101;28;20428;-81
2022/07/13 11:34:11;;;;;;;3.70;0.63;;;;;;;;;;5071782;28;20416;-81
2022/07/13 11:36:40;;;;;;;3.25;0.70;;;;;;;;;;5072098;28;20488;-81
2022/07/13 11:39:21;;;;;;;1.55;0.73;;;;;;;;;;5072044;28;20375;-81
2022/07/13 11:41:47;;;;;;;0.73;0.73;;;;;;;;;;5076363;28;20368;-81
2022/07/13 11:44:13;;;;;;;2.60;0.68;;;;;;;;;;5076113;28;20410;-81
2022/07/13 11:46:39;;;;;;;0.82;0.77;;;;;;;;;;5075865;28;20402;-82
2022/07/13 11:49:07;;;;;;;1.38;0.80;;;;;;;;;;5076051;28;20376;-82
2022/07/13 11:51:33;;;;;;;1.23;0.60;;;;;;;;;;5075805;28;20849;-83
2022/07/13 11:54:16;;;;;;;1.50;0.53;;;;;;;;;;5072546;28;20453;-82
2022/07/13 11:56:50;;;;;;;2.05;0.90;;;;;;;;;;5076206;28;20920;-82
2022/07/13 11:59:33;;;;;;;1.40;1.05;;;;;;;;;;5075902;28;20399;-82
2022/07/13 12:02:01;;;;;;;1.05;0.75;;;;;;;;;;5075620;28;20407;-82
2022/07/13 12:04:27;;;;;;;0.90;0.65;;;;;;;;;;5075499;28;20379;-82
2022/07/13 12:07:12;;;;;;;1.40;0.70;;;;;;;;;;5075526;28;20880;-82
2022/07/13 12:09:45;;;;;;;0.47;0.40;;;;;;;;;;5075570;28;20436;-82
2022/07/13 12:12:12;;;;;;;3.33;0.50;;;;;;;;;;5075396;28;20403;-82
2022/07/13 12:14:38;;;;;;;2.20;0.50;;;;;;;;;;5074403;28;20404;-82
2022/07/13 12:17:04;;;;;;;1.92;0.40;;;;;;;;;;5075264;28;20383;-82
2022/07/13 12:19:30;;;;;;;1.02;0.40;;;;;;;;;;5075304;28;20384;-82
2022/07/13 12:21:57;;;;;;;1.15;0.40;;;;;;;;;;5075127;28;20387;-82
2022/07/13 12:24:23;;;;;;;1.50;0.60;;;;;;;;;;5075403;28;20459;-82
2022/07/13 12:26:52;;;;;;;1.07;0.70;;;;;;;;;;5088695;28;20519;-82
2022/07/13 12:29:31;;;;;;;1.35;0.60;;;;;;;;;;5095448;28;20719;-82
2022/07/13 12:31:58;;;;;;;1.50;0.80;;;;;;;;;;5095287;28;20500;-82
2022/07/13 12:34:24;;;;;;;1.80;0.70;;;;;;;;;;5095132;28;20882;-83
2022/07/13 12:36:51;;;;;;;1.33;0.60;;;;;;;;;;5093972;28;20405;-82
2022/07/13 12:39:20;;;;;;;1.58;0.68;;;;;;;;;;5095183;28;20381;-83
2022/07/13 12:41:56;;;;;;;0.90;0.50;;;;;;;;;;5095210;28;20378;-82
2022/07/13 12:44:29;;;;;;;1.10;0.70;;;;;;;;;;5095012;28;20837;-82
2022/07/13 12:46:58;;;;;;;1.75;0.65;;;;;;;;;;5094970;28;20852;-82
2022/07/13 12:49:30;;;;;;;1.25;0.80;;;;;;;;;;5095047;28;20545;-83
2022/07/13 12:52:02;;;;;;;1.05;0.52;;;;;;;;;;5094269;28;20419;-82
2022/07/13 12:54:46;;;;;;;1.13;0.55;;;;;;;;;;5095052;28;20423;-82
2022/07/13 12:57:15;;;;;;;3.78;0.63;;;;;;;;;;5094935;28;20400;-82
2022/07/13 12:59:57;;;;;;;2.90;0.70;;;;;;;;;;5094829;28;20370;-82
2022/07/13 13:02:23;;;;;;;1.27;0.67;;;;;;;;;;5094884;28;20371;-82
2022/07/13 13:04:49;;;;;;;1.00;0.60;;;;;;;;;;5093219;28;20447;-82
2022/07/13 13:07:15;;;;;;;1.00;0.60;;;;;;;;;;5094610;28;20390;-82
2022/07/13 13:09:41;;;;;;;1.10;0.50;;;;;;;;;;5094700;28;20397;-82
2022/07/13 13:12:07;;;;;;;1.00;0.40;;;;;;;;;;5094453;28;20382;-82
2022/07/13 13:14:33;;;;;;;0.50;0.45;;;;;;;;;;5094539;28;20391;-82
2022/07/13 13:16:59;;;;;;;1.30;0.60;;;;;;;;;;5090153;28;20457;-82
2022/07/13 13:19:25;;;;;;;0.30;0.30;;;;;;;;;;5083121;28;20374;-82
2022/07/13 13:21:51;;;;;;;0.70;0.30;;;;;;;;;;5083675;28;20898;-82
2022/07/13 13:24:17;;;;;;;1.70;0.60;;;;;;;;;;5074087;28;20407;-82
2022/07/13 13:26:46;;;;;;;1.05;0.43;;;;;;;;;;5074052;28;20386;-82
2022/07/13 13:31:58;;;;;;;2.10;0.20;;;;;;;;;;5074077;28;20379;-82
2022/07/13 13:34:24;;;;;;;1.27;0.30;;;;;;;;;;5072398;28;20475;-81
2022/07/13 13:36:50;;;;;;;1.10;0.32;;;;;;;;;;5073880;28;20391;-82
2022/07/13 13:39:17;;;;;;;1.20;0.38;;;;;;;;;;5073895;28;20376;-82
2022/07/13 13:41:43;;;;;;;1.58;0.30;;;;;;;;;;5073995;28;20379;-82
2022/07/13 13:44:09;;;;;;;5.93;0.95;;;;;;;;;;5073662;28;20391;-82
2022/07/13 13:46:35;;;;;;;2.72;0.52;;;;;;;;;;5073474;28;20392;-82
2022/07/13 13:49:01;;;;;;;1.50;0.40;;;;;;;;;;5073653;28;20853;-82
2022/07/13 13:51:27;;;;;;;2.17;0.50;;;;;;;;;;5073487;28;20387;-82
2022/07/13 13:53:53;;;;;;;0.90;0.43;;;;;;;;;;5073799;28;20491;-82
2022/07/13 13:56:19;;;;;;;1.95;0.32;;;;;;;;;;5073357;28;20376;-82
2022/07/13 13:58:45;;;;;;;0.90;0.40;;;;;;;;;;5072427;28;20392;-82
2022/07/13 14:01:11;;;;;;;1.23;0.40;;;;;;;;;;5072343;28;20383;-82
2022/07/13 14:03:38;;;;;;;0.52;0.30;;;;;;;;;;5072502;28;20387;-82
2022/07/13 14:06:05;;;;;;;1.30;0.50;;;;;;;;;;5073246;28;20384;-82
2022/07/13 14:08:31;;;;;;;0.95;0.32;;;;;;;;;;5073146;28;20429;-82
2022/07/13 14:10:57;;;;;;;1.00;0.30;;;;;;;;;;5073252;28;20384;-82
2022/07/13 14:13:23;;;;;;;0.98;0.30;;;;;;;;;;5071609;28;20411;-82
2022/07/13 14:15:49;;;;;;;1.13;0.30;;;;;;;;;;5073183;28;20473;-82
2022/07/13 14:18:16;;;;;;;0.40;0.30;;;;;;;;;;5073085;28;20368;-82
2022/07/13 14:20:42;;;;;;;1.40;0.30;;;;;;;;;;5073093;28;20380;-81
2022/07/13 14:23:08;;;;;;;1.00;0.30;;;;;;;;;;5074798;28;20875;-82
2022/07/13 14:25:34;;;;;;;0.20;0.20;;;;;;;;;;5093122;28;20877;-82
2022/07/13 14:28:01;;;;;;;1.65;0.20;;;;;;;;;;5083703;28;20394;-81
2022/07/13 14:30:27;;;;;;;0.70;0.30;;;;;;;;;;5093081;28;21012;-82
2022/07/13 14:32:53;;;;;;;0.80;0.20;;;;;;;;;;5093014;28;20441;-82
2022/07/13 14:35:19;;;;;;;0.60;0.27;;;;;;;;;;5092791;28;20417;-82
2022/07/13 14:37:45;;;;;;;0.87;0.20;;;;;;;;;;5092910;28;20514;-81
2022/07/13 14:40:11;;;;;;;1.60;0.28;;;;;;;;;;5092977;28;20867;-81
2022/07/13 14:42:37;;;;;;;1.67;0.30;;;;;;;;;;5092858;28;20378;-82
2022/07/13 14:45:03;;;;;;;0.40;0.30;;;;;;;;;;5092787;28;20924;-82
2022/07/13 14:47:29;;;;;;;0.90;0.10;;;;;;;;;;5092776;28;20381;-82
2022/07/13 14:49:55;;;;;;;0.40;0.20;;;;;;;;;;5092658;28;20378;-82
2022/07/13 14:52:21;;;;;;;0.80;0.30;;;;;;;;;;5092946;28;20406;-81
2022/07/13 14:54:47;;;;;;;0.45;0.20;;;;;;;;;;5092611;28;20378;-81
2022/07/13 14:57:13;;;;;;;0.32;0.30;;;;;;;;;;5092688;28;20381;-81